MSC Bettina — HPFG — position and weather

sailwx.info

Track history (hours):
 
Tides and Currents Weather Stations Pressure Air Temp Water Temp Dewpoint Dewpoint Depression Visibility Wind Speed Wind Dir Waves Ship Positions

MSC Bettina

Last reported at 2014-Oct-10 15:10 UTC. Time now 2014-Oct-22 09:37 UTC.
Position N 01°14' E 103°26'.
Warning: this ship's position is 11 days out of date.

Length 366 m; draft 15 m.

Type: Ship (hazmat cat A). MMSI: 352361000.

Date/timePositionNaut miles runAvg speedWind from/ knotsBaromVisibWave heightAir tempDewpointWater temp
2014-Oct-10 15:10N 01°14' E 103°26'1118.7
2014-Oct-10 14:33N 01°11' E 103°37'1211.8
2014-Oct-10 13:33N 01°12' E 103°49'6 5.4
2014-Oct-10 12:28N 01°17' E 103°45'0 0.0
2014-Oct-10 11:31N 01°17' E 103°45'0 0.0
2014-Oct-10 10:28N 01°17' E 103°45'0 0.0
2014-Oct-10 09:31N 01°17' E 103°45'0 0.0
2014-Oct-10 08:31N 01°17' E 103°45'0 0.0
2014-Oct-10 07:31N 01°17' E 103°45'0 0.0
2014-Oct-10 06:31N 01°17' E 103°45'0 0.0
2014-Oct-10 05:31N 01°17' E 103°45'0 0.0
2014-Oct-10 04:31N 01°17' E 103°45'0 0.0
2014-Oct-10 03:28N 01°17' E 103°45'0 0.0
2014-Oct-10 02:31N 01°17' E 103°45'0 0.0
2014-Oct-10 01:31N 01°17' E 103°45'0 0.0
2014-Oct-10 00:31N 01°17' E 103°45'0 0.0
2014-Oct-09 23:31N 01°17' E 103°45'0 0.0
2014-Oct-09 22:31N 01°17' E 103°45'0 0.0
2014-Oct-09 21:31N 01°17' E 103°45'0 0.0
2014-Oct-09 20:31N 01°17' E 103°45'0 0.0
2014-Oct-09 19:31N 01°17' E 103°45'0 0.0
2014-Oct-09 18:31N 01°17' E 103°45'0 0.0
2014-Oct-09 17:31N 01°17' E 103°45'0 0.0
2014-Oct-09 16:31N 01°17' E 103°45'0 0.0
2014-Oct-09 15:31N 01°17' E 103°45'0 0.0
2014-Oct-09 14:28N 01°17' E 103°45'0 0.0
2014-Oct-09 13:31N 01°17' E 103°45'0 0.0
2014-Oct-09 12:31N 01°17' E 103°45'0 0.0
2014-Oct-09 11:31N 01°17' E 103°45'0 0.0
2014-Oct-09 10:31N 01°17' E 103°45'0 0.0
2014-Oct-09 09:31N 01°17' E 103°45'0 0.0
2014-Oct-09 08:31N 01°17' E 103°45'0 0.0
2014-Oct-09 07:31N 01°17' E 103°45'0 0.0
2014-Oct-09 06:31N 01°17' E 103°45'0 0.0
2014-Oct-09 05:31N 01°17' E 103°45'0 0.0
2014-Oct-09 04:28N 01°17' E 103°45'0 0.0
2014-Oct-09 03:31N 01°17' E 103°45'0 0.0
2014-Oct-09 02:31N 01°17' E 103°45'0 0.4
2014-Oct-09 01:33N 01°16' E 103°46'5 4.6
2014-Oct-09 00:33N 01°13' E 103°49'8 8.0
2014-Oct-08 23:33N 01°14' E 103°56'1212.3
2014-Oct-08 22:33N 01°16' E 104°09'  
2014-Oct-05 08:22N 23°37' E 118°19'47117.3
2014-Oct-04 05:13N 30°13' E 123°05'1319.2
2014-Oct-04 04:33N 30°21' E 122°54'1817.5
2014-Oct-04 03:33N 30°29' E 122°36'1514.8
2014-Oct-04 02:33N 30°32' E 122°19'1310.2
2014-Oct-04 01:17N 30°36' E 122°05'0 0.0
2014-Oct-03 04:04N 30°36' E 122°05'0 0.0
2014-Oct-03 03:22N 30°36' E 122°05'0 0.0
2014-Oct-03 00:23N 30°36' E 122°05'0 0.0
2014-Oct-02 22:31N 30°36' E 122°05'6 5.7
2014-Oct-02 21:33N 30°34' E 122°11'10 9.7
2014-Oct-02 20:33N 30°33' E 122°22'9 8.6
2014-Oct-02 19:33N 30°31' E 122°32'1010.0
2014-Oct-02 18:32N 30°27' E 122°42'0 0.0
2014-Oct-02 13:16N 30°27' E 122°43'0 0.0
2014-Oct-02 11:28N 30°27' E 122°43'0 0.1
2014-Oct-02 09:22N 30°27' E 122°42'0 0.0
2014-Oct-02 08:04N 30°27' E 122°42'0 0.0
2014-Oct-02 05:16N 30°27' E 122°42'0 0.1
2014-Oct-02 03:28N 30°27' E 122°42'1 0.6
2014-Oct-02 01:33N 30°27' E 122°44'1110.9
2014-Oct-02 00:33N 30°21' E 122°55'26 7.5
2014-Oct-01 21:06N 29°56' E 122°56'510.0
2014-Oct-01 20:33N 29°51' E 122°52'1010.1
2014-Oct-01 19:32N 29°44' E 122°44'1010.5
2014-Oct-01 18:33N 29°40' E 122°33'1110.7
2014-Oct-01 17:33N 29°42' E 122°21'1312.7
2014-Oct-01 16:33N 29°52' E 122°11'8 8.2
2014-Oct-01 15:33N 29°54' E 122°02'0 0.1
2014-Oct-01 14:17N 29°54' E 122°02'0 0.0
2014-Oct-01 13:29N 29°54' E 122°02'0 0.0
2014-Oct-01 12:29N 29°54' E 122°02'0 0.0
2014-Oct-01 11:29N 29°54' E 122°02'0 0.0
2014-Oct-01 07:17N 29°54' E 122°02'0 0.0
2014-Oct-01 05:17N 29°54' E 122°02'0 0.0
2014-Oct-01 04:29N 29°54' E 122°02'0 0.0
2014-Oct-01 03:11N 29°54' E 122°02'0 0.0
2014-Oct-01 02:23N 29°54' E 122°02'0 0.0
2014-Oct-01 00:29N 29°54' E 122°02'0 0.0
2014-Sep-30 23:17N 29°54' E 122°02'0 0.0
2014-Sep-30 21:23N 29°54' E 122°02'0 0.0
2014-Sep-30 20:29N 29°54' E 122°02'0 0.0
2014-Sep-30 16:29N 29°54' E 122°02'0 0.0
2014-Sep-30 15:29N 29°54' E 122°02'  
Track history (hours):
 
Tides and Currents Weather Stations Pressure Air Temp Water Temp Dewpoint Dewpoint Depression Visibility Wind Speed Wind Dir Waves Ship Positions

MSC Bettina

Last reported at 2014-Oct-10 15:10 UTC. Time now 2014-Oct-22 09:37 UTC.
Position N 01°14' E 103°26'.
Warning: this ship's position is 11 days out of date.

Length 366 m; draft 15 m.

Type: Ship (hazmat cat A). MMSI: 352361000.

Date/timePositionNaut miles runAvg speedWind from/ knotsBaromVisibWave heightAir tempDewpointWater temp
2014-Oct-10 15:10N 01°14' E 103°26'1118.7
2014-Oct-10 14:33N 01°11' E 103°37'1211.8
2014-Oct-10 13:33N 01°12' E 103°49'6 5.4
2014-Oct-10 12:28N 01°17' E 103°45'0 0.0
2014-Oct-10 11:31N 01°17' E 103°45'0 0.0
2014-Oct-10 10:28N 01°17' E 103°45'0 0.0
2014-Oct-10 09:31N 01°17' E 103°45'0 0.0
2014-Oct-10 08:31N 01°17' E 103°45'0 0.0
2014-Oct-10 07:31N 01°17' E 103°45'0 0.0
2014-Oct-10 06:31N 01°17' E 103°45'0 0.0
2014-Oct-10 05:31N 01°17' E 103°45'0 0.0
2014-Oct-10 04:31N 01°17' E 103°45'0 0.0
2014-Oct-10 03:28N 01°17' E 103°45'0 0.0
2014-Oct-10 02:31N 01°17' E 103°45'0 0.0
2014-Oct-10 01:31N 01°17' E 103°45'0 0.0
2014-Oct-10 00:31N 01°17' E 103°45'0 0.0
2014-Oct-09 23:31N 01°17' E 103°45'0 0.0
2014-Oct-09 22:31N 01°17' E 103°45'0 0.0
2014-Oct-09 21:31N 01°17' E 103°45'0 0.0
2014-Oct-09 20:31N 01°17' E 103°45'0 0.0
2014-Oct-09 19:31N 01°17' E 103°45'0 0.0
2014-Oct-09 18:31N 01°17' E 103°45'0 0.0
2014-Oct-09 17:31N 01°17' E 103°45'0 0.0
2014-Oct-09 16:31N 01°17' E 103°45'0 0.0
2014-Oct-09 15:31N 01°17' E 103°45'0 0.0
2014-Oct-09 14:28N 01°17' E 103°45'0 0.0
2014-Oct-09 13:31N 01°17' E 103°45'0 0.0
2014-Oct-09 12:31N 01°17' E 103°45'0 0.0
2014-Oct-09 11:31N 01°17' E 103°45'0 0.0
2014-Oct-09 10:31N 01°17' E 103°45'0 0.0
2014-Oct-09 09:31N 01°17' E 103°45'0 0.0
2014-Oct-09 08:31N 01°17' E 103°45'0 0.0
2014-Oct-09 07:31N 01°17' E 103°45'0 0.0
2014-Oct-09 06:31N 01°17' E 103°45'0 0.0
2014-Oct-09 05:31N 01°17' E 103°45'0 0.0
2014-Oct-09 04:28N 01°17' E 103°45'0 0.0
2014-Oct-09 03:31N 01°17' E 103°45'0 0.0
2014-Oct-09 02:31N 01°17' E 103°45'0 0.4
2014-Oct-09 01:33N 01°16' E 103°46'5 4.6
2014-Oct-09 00:33N 01°13' E 103°49'8 8.0
2014-Oct-08 23:33N 01°14' E 103°56'1212.3
2014-Oct-08 22:33N 01°16' E 104°09'  
2014-Oct-05 08:22N 23°37' E 118°19'47117.3
2014-Oct-04 05:13N 30°13' E 123°05'1319.2
2014-Oct-04 04:33N 30°21' E 122°54'1817.5
2014-Oct-04 03:33N 30°29' E 122°36'1514.8
2014-Oct-04 02:33N 30°32' E 122°19'1310.2
2014-Oct-04 01:17N 30°36' E 122°05'0 0.0
2014-Oct-03 04:04N 30°36' E 122°05'0 0.0
2014-Oct-03 03:22N 30°36' E 122°05'0 0.0
2014-Oct-03 00:23N 30°36' E 122°05'0 0.0
2014-Oct-02 22:31N 30°36' E 122°05'6 5.7
2014-Oct-02 21:33N 30°34' E 122°11'10 9.7
2014-Oct-02 20:33N 30°33' E 122°22'9 8.6
2014-Oct-02 19:33N 30°31' E 122°32'1010.0
2014-Oct-02 18:32N 30°27' E 122°42'0 0.0
2014-Oct-02 13:16N 30°27' E 122°43'0 0.0
2014-Oct-02 11:28N 30°27' E 122°43'0 0.1
2014-Oct-02 09:22N 30°27' E 122°42'0 0.0
2014-Oct-02 08:04N 30°27' E 122°42'0 0.0
2014-Oct-02 05:16N 30°27' E 122°42'0 0.1
2014-Oct-02 03:28N 30°27' E 122°42'1 0.6
2014-Oct-02 01:33N 30°27' E 122°44'1110.9
2014-Oct-02 00:33N 30°21' E 122°55'26 7.5
2014-Oct-01 21:06N 29°56' E 122°56'510.0
2014-Oct-01 20:33N 29°51' E 122°52'1010.1
2014-Oct-01 19:32N 29°44' E 122°44'1010.5
2014-Oct-01 18:33N 29°40' E 122°33'1110.7
2014-Oct-01 17:33N 29°42' E 122°21'1312.7
2014-Oct-01 16:33N 29°52' E 122°11'8 8.2
2014-Oct-01 15:33N 29°54' E 122°02'0 0.1
2014-Oct-01 14:17N 29°54' E 122°02'0 0.0
2014-Oct-01 13:29N 29°54' E 122°02'0 0.0
2014-Oct-01 12:29N 29°54' E 122°02'0 0.0
2014-Oct-01 11:29N 29°54' E 122°02'0 0.0
2014-Oct-01 07:17N 29°54' E 122°02'0 0.0
2014-Oct-01 05:17N 29°54' E 122°02'0 0.0
2014-Oct-01 04:29N 29°54' E 122°02'0 0.0
2014-Oct-01 03:11N 29°54' E 122°02'0 0.0
2014-Oct-01 02:23N 29°54' E 122°02'0 0.0
2014-Oct-01 00:29N 29°54' E 122°02'0 0.0
2014-Sep-30 23:17N 29°54' E 122°02'0 0.0
2014-Sep-30 21:23N 29°54' E 122°02'0 0.0
2014-Sep-30 20:29N 29°54' E 122°02'0 0.0
2014-Sep-30 16:29N 29°54' E 122°02'0 0.0
2014-Sep-30 15:29N 29°54' E 122°02'  

Dump ship's entire track history